createdAt,value
2018-11-23T00:00:58.055Z,20.45
2018-11-23T00:03:25.863Z,19.65
2018-11-23T00:05:53.591Z,21.60
2018-11-23T00:08:38.401Z,21.35
2018-11-23T00:11:06.257Z,21.10
2018-11-23T00:13:34.599Z,20.90
2018-11-23T00:16:02.616Z,21.48
2018-11-23T00:18:31.571Z,20.70
2018-11-23T00:20:59.270Z,22.58
2018-11-23T00:23:26.970Z,20.82
2018-11-23T00:25:54.744Z,19.90
2018-11-23T00:28:22.559Z,20.82
2018-11-23T00:30:50.313Z,20.00
2018-11-23T00:33:18.094Z,21.52
2018-11-23T00:35:45.854Z,21.07
2018-11-23T00:38:13.611Z,20.88
2018-11-23T00:40:41.613Z,23.30
2018-11-23T00:43:09.650Z,22.55
2018-11-23T00:45:42.768Z,24.40
2018-11-23T00:48:05.526Z,22.93
2018-11-23T00:50:33.225Z,24.40
2018-11-23T00:53:01.305Z,19.95
2018-11-23T00:55:29.764Z,21.60
2018-11-23T00:57:57.796Z,21.15
2018-11-23T01:00:26.994Z,21.73
2018-11-23T01:02:56.093Z,21.00
2018-11-23T01:05:23.944Z,20.27
2018-11-23T01:07:51.933Z,19.40
2018-11-23T01:10:21.014Z,21.70
2018-11-23T01:12:49.694Z,20.02
2018-11-23T01:15:17.669Z,17.87
2018-11-23T01:17:45.441Z,20.17
2018-11-23T01:20:15.692Z,20.37
2018-11-23T01:22:44.328Z,18.90
2018-11-23T01:25:13.522Z,18.27
2018-11-23T01:27:42.218Z,19.10
2018-11-23T01:30:12.648Z,19.10
2018-11-23T01:32:40.504Z,19.15
2018-11-23T01:35:08.296Z,18.65
2018-11-23T01:37:36.101Z,18.20
2018-11-23T01:40:04.225Z,17.77
2018-11-23T01:42:32.712Z,17.90
2018-11-23T01:45:00.450Z,19.12
2018-11-23T01:47:28.331Z,18.77
2018-11-23T01:49:55.992Z,19.27
2018-11-23T01:52:23.684Z,17.15
2018-11-23T01:54:51.371Z,19.55
2018-11-23T01:57:19.175Z,17.52
2018-11-23T01:59:46.846Z,20.77
2018-11-23T02:02:14.561Z,18.92
2018-11-23T02:04:42.330Z,18.02
2018-11-23T02:07:10.128Z,19.20
2018-11-23T02:09:38.198Z,18.35
2018-11-23T02:12:06.084Z,19.00
2018-11-23T02:14:33.757Z,16.62
2018-11-23T02:17:01.413Z,18.75
2018-11-23T02:19:29.150Z,17.57
2018-11-23T02:21:56.960Z,16.93
2018-11-23T02:24:24.652Z,18.92
2018-11-23T02:26:52.373Z,18.85
2018-11-23T02:29:20.325Z,18.70
2018-11-23T02:31:49.027Z,17.60
2018-11-23T02:34:16.800Z,19.07
2018-11-23T02:36:44.559Z,17.62
2018-11-23T02:39:12.563Z,18.92
2018-11-23T02:41:40.535Z,19.60
2018-11-23T02:44:08.326Z,18.57
2018-11-23T02:46:36.170Z,18.57
2018-11-23T02:49:04.448Z,18.00
2018-11-23T02:51:32.168Z,17.55
2018-11-23T02:54:00.084Z,16.30
2018-11-23T02:56:37.123Z,17.48
2018-11-23T02:59:05.392Z,16.37
2018-11-23T03:01:33.097Z,17.80
2018-11-23T03:04:00.828Z,17.87
2018-11-23T03:06:28.495Z,18.35
2018-11-23T03:08:56.208Z,18.75
2018-11-23T03:11:23.931Z,16.52
2018-11-23T03:13:51.605Z,18.30
2018-11-23T03:16:19.337Z,16.65
2018-11-23T03:18:47.012Z,18.12
2018-11-23T03:21:14.936Z,19.57
2018-11-23T03:23:42.669Z,16.52
2018-11-23T03:26:10.666Z,17.87
2018-11-23T03:28:38.331Z,19.62
2018-11-23T03:31:12.238Z,18.75
2018-11-23T03:33:33.736Z,19.12
2018-11-23T03:36:01.842Z,17.37
2018-11-23T03:38:29.587Z,17.25
2018-11-23T03:40:57.435Z,17.12
2018-11-23T03:43:25.237Z,17.80
2018-11-23T03:45:52.989Z,18.12
2018-11-23T03:48:20.716Z,16.07
2018-11-23T03:50:48.424Z,17.27
2018-11-23T03:53:16.080Z,18.05
2018-11-23T03:55:43.794Z,17.50
2018-11-23T03:58:11.538Z,17.00
2018-11-23T04:00:39.308Z,16.75
2018-11-23T04:03:07.130Z,18.45
2018-11-23T04:05:35.055Z,16.27
2018-11-23T04:08:02.769Z,16.70
2018-11-23T04:10:30.567Z,18.95
2018-11-23T04:12:58.305Z,16.87
2018-11-23T04:15:26.111Z,16.50
2018-11-23T04:17:53.928Z,16.97
2018-11-23T04:20:21.807Z,18.05
2018-11-23T04:22:49.633Z,15.15
2018-11-23T04:25:17.365Z,16.40
2018-11-23T04:27:45.137Z,15.75
2018-11-23T04:30:14.269Z,15.45
2018-11-23T04:32:42.426Z,15.48
2018-11-23T04:35:12.363Z,17.07
2018-11-23T04:37:40.515Z,17.05
2018-11-23T04:40:09.617Z,14.68
2018-11-23T04:42:37.910Z,17.02
2018-11-23T04:45:06.246Z,15.38
2018-11-23T04:47:34.051Z,14.87
2018-11-23T04:50:01.751Z,15.53
2018-11-23T04:52:29.449Z,14.15
2018-11-23T04:54:57.142Z,15.30
2018-11-23T04:57:24.822Z,14.35
2018-11-23T04:59:52.547Z,13.53
2018-11-23T05:02:20.801Z,16.82
2018-11-23T05:04:48.580Z,15.40
2018-11-23T05:07:16.423Z,15.23
2018-11-23T05:09:44.246Z,15.43
2018-11-23T05:12:12.041Z,14.68
2018-11-23T05:14:39.917Z,15.00
2018-11-23T05:17:07.713Z,15.00
2018-11-23T05:19:35.557Z,15.05
2018-11-23T05:22:03.346Z,15.23
2018-11-23T05:24:31.046Z,15.32
2018-11-23T05:26:58.764Z,15.20
2018-11-23T05:29:27.314Z,14.50
2018-11-23T05:31:55.021Z,13.93
2018-11-23T05:34:22.733Z,13.53
2018-11-23T05:36:50.811Z,15.95
2018-11-23T05:39:18.542Z,17.40
2018-11-23T05:41:47.368Z,15.60
2018-11-23T05:44:14.193Z,16.55
2018-11-23T05:46:41.879Z,14.87
2018-11-23T05:49:11.204Z,18.35
2018-11-23T05:51:38.914Z,17.07
2018-11-23T05:54:06.702Z,19.10
2018-11-23T05:56:34.356Z,18.15
2018-11-23T05:59:02.058Z,18.07
2018-11-23T06:01:29.799Z,18.00
2018-11-23T06:03:57.497Z,17.90
2018-11-23T06:06:25.938Z,18.98
2018-11-23T06:08:52.908Z,17.62
2018-11-23T06:11:20.629Z,16.60
2018-11-23T06:13:48.253Z,17.35
2018-11-23T06:16:15.950Z,15.68
2018-11-23T06:18:43.646Z,18.15
2018-11-23T06:21:11.616Z,18.12
2018-11-23T06:23:39.797Z,19.12
2018-11-23T06:26:17.573Z,19.92
2018-11-23T06:28:45.313Z,24.82
2018-11-23T06:31:13.493Z,23.02
2018-11-23T06:33:43.101Z,21.30
2018-11-23T06:36:10.860Z,18.98
2018-11-23T06:38:38.977Z,20.85
2018-11-23T06:41:10.427Z,19.57
2018-11-23T06:43:35.823Z,19.60
2018-11-23T06:46:04.845Z,17.65
2018-11-23T06:48:32.836Z,18.07
2018-11-23T06:51:00.572Z,18.00
2018-11-23T06:53:28.365Z,19.23
2018-11-23T06:55:56.982Z,18.23
2018-11-23T06:58:25.788Z,17.52
2018-11-23T07:00:54.168Z,17.87
2018-11-23T07:03:22.126Z,19.82
2018-11-23T07:05:49.995Z,18.70
2018-11-23T07:08:17.875Z,18.02
2018-11-23T07:10:45.764Z,17.05
2018-11-23T07:13:13.702Z,21.27
2018-11-23T07:15:41.795Z,17.50
2018-11-23T07:18:10.284Z,18.73
2018-11-23T07:20:38.511Z,18.02
2018-11-23T07:23:06.717Z,18.45
2018-11-23T07:25:34.665Z,19.05
2018-11-23T07:28:03.892Z,15.95
2018-11-23T07:30:32.058Z,17.25
2018-11-23T07:32:59.883Z,18.92
2018-11-23T07:35:27.799Z,20.50
2018-11-23T07:37:55.941Z,23.50
2018-11-23T07:40:36.740Z,18.48
2018-11-23T07:43:04.597Z,18.17
2018-11-23T07:45:33.598Z,19.25
2018-11-23T07:48:01.413Z,16.10
2018-11-23T07:50:29.518Z,17.80
2018-11-23T07:52:57.291Z,16.07
2018-11-23T07:55:25.011Z,17.40
2018-11-23T07:57:52.804Z,18.90
2018-11-23T08:00:22.137Z,17.93
2018-11-23T08:02:50.960Z,18.63
2018-11-23T08:05:19.496Z,18.33
2018-11-23T08:07:47.297Z,24.03
2018-11-23T08:10:15.014Z,23.70
2018-11-23T08:12:44.933Z,24.73
2018-11-23T08:15:16.778Z,22.10
2018-11-23T08:17:45.813Z,20.33
2018-11-23T08:20:15.830Z,21.27
2018-11-23T08:22:43.680Z,20.30
2018-11-23T08:25:12.617Z,18.27
2018-11-23T08:27:40.933Z,19.83
2018-11-23T08:30:14.890Z,19.80
2018-11-23T08:32:42.725Z,25.17
2018-11-23T08:35:10.574Z,24.70
2018-11-23T08:37:38.559Z,17.10
2018-11-23T08:40:12.896Z,16.27
2018-11-23T08:42:41.427Z,15.90
2018-11-23T08:45:11.153Z,15.93
2018-11-23T08:47:38.986Z,15.07
2018-11-23T08:50:10.514Z,14.40
2018-11-23T08:52:38.284Z,14.57
2018-11-23T08:55:06.579Z,15.90
2018-11-23T08:57:34.497Z,17.23
2018-11-23T09:00:02.409Z,15.90
2018-11-23T09:02:30.261Z,15.53
2018-11-23T09:04:57.969Z,15.60
2018-11-23T09:07:31.302Z,16.70
2018-11-23T09:09:59.046Z,16.90
2018-11-23T09:12:27.429Z,17.17
2018-11-23T09:14:55.249Z,16.80
2018-11-23T09:17:35.918Z,18.93
2018-11-23T09:20:04.595Z,16.63
2018-11-23T09:22:32.305Z,18.70
2018-11-23T09:25:00.664Z,18.27
2018-11-23T09:27:28.321Z,20.13
2018-11-23T09:29:56.041Z,19.70
2018-11-23T09:32:23.846Z,19.87
2018-11-23T09:34:52.606Z,17.40
2018-11-23T09:37:20.335Z,15.30
2018-11-23T09:39:48.041Z,17.03
2018-11-23T09:42:15.770Z,16.93
2018-11-23T09:44:43.497Z,18.27
2018-11-23T09:47:11.237Z,15.77
2018-11-23T09:49:42.143Z,15.33
2018-11-23T09:52:10.880Z,15.10
2018-11-23T09:54:38.577Z,15.73
2018-11-23T09:57:06.551Z,17.60
2018-11-23T09:59:34.269Z,18.60
2018-11-23T10:02:01.967Z,16.47
2018-11-23T10:04:29.755Z,15.30
2018-11-23T10:06:57.478Z,15.33
2018-11-23T10:09:25.193Z,15.27
2018-11-23T10:11:53.656Z,15.50
2018-11-23T10:14:22.853Z,14.93
2018-11-23T10:16:50.575Z,15.00
2018-11-23T10:19:33.561Z,15.60
2018-11-23T10:22:01.333Z,15.27
2018-11-23T10:24:29.117Z,15.40
2018-11-23T10:26:56.769Z,15.80
2018-11-23T10:29:24.489Z,17.37
2018-11-23T10:31:52.242Z,17.20
2018-11-23T10:34:19.969Z,14.23
2018-11-23T10:36:47.738Z,15.70
2018-11-23T10:39:16.789Z,17.03
2018-11-23T10:41:44.499Z,15.60
2018-11-23T10:44:19.081Z,16.13
2018-11-23T10:46:53.033Z,15.03
2018-11-23T10:49:20.729Z,14.97
2018-11-23T10:51:48.489Z,16.07
2018-11-23T10:54:16.230Z,15.50
2018-11-23T10:56:45.664Z,15.00
2018-11-23T10:59:13.434Z,14.87
2018-11-23T11:01:46.734Z,15.97
2018-11-23T11:04:52.857Z,15.80
2018-11-23T11:07:20.657Z,12.43
2018-11-23T11:09:48.461Z,12.90
2018-11-23T11:12:16.223Z,12.93
2018-11-23T11:14:43.917Z,13.50
2018-11-23T11:17:11.640Z,11.37
2018-11-23T11:19:39.345Z,12.03
2018-11-23T11:22:07.035Z,11.17
2018-11-23T11:24:34.716Z,13.23
2018-11-23T11:27:02.430Z,13.40
2018-11-23T11:29:30.161Z,13.10
2018-11-23T11:31:57.916Z,13.10
2018-11-23T11:34:25.649Z,13.63
2018-11-23T11:36:53.316Z,11.37
2018-11-23T11:39:21.021Z,10.80
2018-11-23T11:41:48.735Z,13.10
2018-11-23T11:44:16.427Z,11.40
2018-11-23T11:46:44.152Z,12.20
2018-11-23T11:49:11.921Z,12.63
2018-11-23T11:51:40.901Z,12.70
2018-11-23T11:54:08.708Z,11.63
2018-11-23T11:56:36.486Z,11.87
2018-11-23T11:59:04.294Z,12.37
2018-11-23T12:01:32.041Z,11.67
2018-11-23T12:04:00.449Z,12.47
2018-11-23T12:06:28.227Z,11.37
2018-11-23T12:08:55.984Z,12.27
2018-11-23T12:11:23.742Z,11.77
2018-11-23T12:13:51.472Z,13.70
2018-11-23T12:16:19.290Z,12.33
2018-11-23T12:18:47.282Z,12.47
2018-11-23T12:21:15.017Z,9.57
2018-11-23T12:23:42.844Z,11.10
2018-11-23T12:26:10.617Z,13.03
2018-11-23T12:28:38.372Z,9.43
2018-11-23T12:31:06.812Z,8.30
2018-11-23T12:33:34.568Z,7.50
2018-11-23T12:36:02.339Z,7.10
2018-11-23T12:38:30.642Z,6.47
2018-11-23T12:40:58.371Z,8.63
2018-11-23T12:43:26.082Z,6.33
2018-11-23T12:45:53.918Z,8.10
2018-11-23T12:48:21.684Z,6.87
2018-11-23T12:50:49.514Z,6.03
2018-11-23T12:53:17.242Z,6.70
2018-11-23T12:55:45.025Z,9.37
2018-11-23T12:58:13.593Z,10.13
2018-11-23T13:00:41.310Z,9.90
2018-11-23T13:03:09.044Z,10.43
2018-11-23T13:05:36.833Z,10.17
2018-11-23T13:08:05.737Z,9.90
2018-11-23T13:10:33.487Z,9.60
2018-11-23T13:13:01.678Z,9.60
2018-11-23T13:15:29.541Z,9.43
2018-11-23T13:17:58.161Z,9.47
2018-11-23T13:20:26.772Z,8.73
2018-11-23T13:22:54.529Z,9.00
2018-11-23T13:25:24.930Z,9.30
2018-11-23T13:27:53.860Z,9.90
2018-11-23T13:30:24.221Z,8.17
2018-11-23T13:32:52.113Z,8.87
2018-11-23T13:35:20.832Z,9.20
2018-11-23T13:37:48.684Z,9.73
2018-11-23T13:40:17.765Z,9.53
2018-11-23T13:42:46.047Z,8.70
2018-11-23T13:45:15.331Z,9.97
2018-11-23T13:47:43.169Z,8.67
2018-11-23T13:50:13.419Z,9.07
2018-11-23T13:52:42.010Z,11.33
2018-11-23T13:55:09.773Z,9.13
2018-11-23T13:57:37.558Z,9.20
2018-11-23T14:00:14.726Z,10.10
2018-11-23T14:02:42.816Z,8.03
2018-11-23T14:05:12.269Z,9.00
2018-11-23T14:07:40.480Z,9.70
2018-11-23T14:10:10.389Z,9.33
2018-11-23T14:12:38.143Z,8.93
2018-11-23T14:15:08.687Z,9.20
2018-11-23T14:17:36.472Z,9.87
2018-11-23T14:20:05.476Z,9.87
2018-11-23T14:22:33.256Z,9.00
2018-11-23T14:25:00.985Z,8.53
2018-11-23T14:27:29.312Z,8.43
2018-11-23T14:29:57.068Z,8.47
2018-11-23T14:32:24.786Z,8.73
2018-11-23T14:34:52.511Z,8.93
2018-11-23T14:37:20.257Z,9.00
2018-11-23T14:39:48.006Z,8.90
2018-11-23T14:42:16.354Z,8.13
2018-11-23T14:44:44.120Z,8.13
2018-11-23T14:47:11.910Z,7.87
2018-11-23T14:49:39.810Z,7.53
2018-11-23T14:52:07.549Z,8.13
2018-11-23T14:54:35.378Z,7.80
2018-11-23T14:57:03.167Z,9.00
2018-11-23T14:59:30.922Z,7.43
2018-11-23T15:01:59.617Z,8.13
2018-11-23T15:04:27.534Z,8.47
2018-11-23T15:06:55.315Z,8.40
2018-11-23T15:09:23.054Z,9.60
2018-11-23T15:11:50.788Z,8.60
2018-11-23T15:14:18.491Z,7.90
2018-11-23T15:16:46.248Z,10.20
2018-11-23T15:19:14.009Z,8.70
2018-11-23T15:21:41.877Z,7.60
2018-11-23T15:24:09.605Z,8.30
2018-11-23T15:26:37.413Z,8.90
2018-11-23T15:29:05.457Z,8.40
2018-11-23T15:31:33.235Z,7.90
2018-11-23T15:34:01.956Z,9.30
2018-11-23T15:36:29.710Z,8.20
2018-11-23T15:38:57.495Z,8.07
2018-11-23T15:41:25.266Z,7.80
2018-11-23T15:43:53.088Z,7.83
2018-11-23T15:46:20.842Z,8.30
2018-11-23T15:48:48.601Z,8.43
2018-11-23T15:51:16.356Z,7.73
2018-11-23T15:53:44.431Z,9.50
2018-11-23T15:56:12.246Z,8.83
2018-11-23T15:58:40.029Z,9.20
2018-11-23T16:01:07.787Z,11.33
2018-11-23T16:03:35.541Z,9.57
2018-11-23T16:06:03.401Z,9.50
2018-11-23T16:08:31.037Z,9.50
2018-11-23T16:10:59.454Z,10.03
2018-11-23T16:13:27.149Z,10.23
2018-11-23T16:15:54.924Z,10.37
2018-11-23T16:18:22.648Z,10.33
2018-11-23T16:20:50.415Z,9.40
2018-11-23T16:23:19.462Z,12.17
2018-11-23T16:25:47.797Z,10.80
2018-11-23T16:28:15.504Z,10.80
2018-11-23T16:30:44.787Z,10.50
2018-11-23T16:33:14.095Z,11.77
2018-11-23T16:35:42.298Z,10.47
2018-11-23T16:38:11.653Z,11.00
2018-11-23T16:40:41.876Z,10.53
2018-11-23T16:43:10.701Z,11.20
2018-11-23T16:45:39.889Z,11.63
2018-11-23T16:48:08.755Z,10.47
2018-11-23T16:50:36.550Z,10.07
2018-11-23T16:53:04.589Z,10.17
2018-11-23T16:55:33.058Z,11.80
2018-11-23T16:58:03.125Z,10.33
2018-11-23T17:00:32.328Z,9.50
2018-11-23T17:03:01.544Z,9.53
2018-11-23T17:05:30.873Z,10.57
2018-11-23T17:07:58.649Z,10.83
2018-11-23T17:10:26.449Z,10.17
2018-11-23T17:12:55.027Z,10.90
2018-11-23T17:15:24.215Z,9.70
2018-11-23T17:17:51.980Z,11.07
2018-11-23T17:20:21.178Z,10.47
2018-11-23T17:22:50.257Z,10.30
2018-11-23T17:25:18.990Z,9.30
2018-11-23T17:27:47.045Z,10.50
2018-11-23T17:30:16.972Z,10.10
2018-11-23T17:32:44.675Z,11.17
2018-11-23T17:35:12.694Z,10.57
2018-11-23T17:37:40.897Z,10.20
2018-11-23T17:40:13.358Z,11.53
2018-11-23T17:42:42.153Z,11.40
2018-11-23T17:45:14.650Z,10.87
2018-11-23T17:47:42.486Z,10.63
2018-11-23T17:50:14.053Z,11.53
2018-11-23T17:52:42.653Z,12.20
2018-11-23T17:55:11.295Z,12.20
2018-11-23T17:57:39.797Z,10.43
2018-11-23T18:00:15.363Z,10.80
2018-11-23T18:02:43.637Z,11.73
2018-11-23T18:05:12.791Z,11.70
2018-11-23T18:07:40.772Z,12.00
2018-11-23T18:10:11.296Z,13.23
2018-11-23T18:12:39.081Z,12.70
2018-11-23T18:15:10.736Z,13.47
2018-11-23T18:17:38.535Z,11.83
2018-11-23T18:20:08.518Z,12.20
2018-11-23T18:22:36.357Z,13.17
2018-11-23T18:25:04.867Z,16.10
2018-11-23T18:27:33.632Z,15.13
2018-11-23T18:30:00.506Z,20.17
2018-11-23T18:32:28.288Z,13.63
2018-11-23T18:34:55.995Z,13.50
2018-11-23T18:37:23.872Z,15.80
2018-11-23T18:39:51.702Z,14.10
2018-11-23T18:42:19.478Z,14.57
2018-11-23T18:44:47.321Z,13.23
2018-11-23T18:47:15.233Z,14.30
2018-11-23T18:49:43.105Z,14.63
2018-11-23T18:52:10.934Z,15.07
2018-11-23T18:54:38.663Z,16.10
2018-11-23T18:57:06.550Z,16.50
2018-11-23T18:59:34.317Z,18.53
2018-11-23T19:02:02.094Z,17.37
2018-11-23T19:04:29.837Z,16.60
2018-11-23T19:06:57.598Z,14.47
2018-11-23T19:09:25.379Z,16.83
2018-11-23T19:11:53.908Z,15.07
2018-11-23T19:14:21.650Z,16.37
2018-11-23T19:16:49.482Z,15.50
2018-11-23T19:19:17.225Z,19.10
2018-11-23T19:21:45.027Z,17.90
2018-11-23T19:24:19.720Z,19.00
2018-11-23T19:26:48.151Z,18.00
2018-11-23T19:29:15.924Z,15.80
2018-11-23T19:31:43.754Z,17.60
2018-11-23T19:34:11.512Z,17.77
2018-11-23T19:36:39.271Z,16.20
2018-11-23T19:39:07.965Z,16.20
2018-11-23T19:41:35.668Z,18.17
2018-11-23T19:44:03.489Z,17.03
2018-11-23T19:46:31.290Z,19.10
2018-11-23T19:48:59.042Z,18.00
2018-11-23T19:51:26.857Z,17.47
2018-11-23T19:53:54.713Z,16.40
2018-11-23T19:56:22.657Z,18.60
2018-11-23T19:58:50.570Z,19.80
2018-11-23T20:01:18.338Z,17.30
2018-11-23T20:03:46.129Z,19.10
2018-11-23T20:06:14.083Z,20.20
2018-11-23T20:08:42.010Z,19.00
2018-11-23T20:11:09.749Z,24.03
2018-11-23T20:13:37.548Z,24.90
2018-11-23T20:16:05.686Z,24.60
2018-11-23T20:18:33.596Z,23.77
2018-11-23T20:21:01.448Z,23.17
2018-11-23T20:23:29.781Z,18.53
2018-11-23T20:25:58.003Z,21.43
2018-11-23T20:28:26.331Z,19.83
2018-11-23T20:30:54.163Z,21.53
2018-11-23T20:33:22.030Z,18.20
2018-11-23T20:35:50.998Z,18.53
2018-11-23T20:38:18.725Z,19.73
2018-11-23T20:40:46.442Z,18.17
2018-11-23T20:43:14.149Z,17.97
2018-11-23T20:45:42.989Z,19.33
2018-11-23T20:48:10.765Z,17.70
2018-11-23T20:50:39.485Z,18.80
2018-11-23T20:53:07.694Z,17.50
2018-11-23T20:55:35.416Z,17.70
2018-11-23T20:58:03.197Z,17.97
2018-11-23T21:00:31.097Z,17.30
2018-11-23T21:02:59.654Z,18.20
2018-11-23T21:05:27.412Z,16.70
2018-11-23T21:07:55.175Z,18.17
2018-11-23T21:10:24.755Z,17.07
2018-11-23T21:12:53.034Z,17.50
2018-11-23T21:15:22.113Z,15.70
2018-11-23T21:17:49.897Z,16.23
2018-11-23T21:20:17.765Z,17.80
2018-11-23T21:22:46.224Z,19.40
2018-11-23T21:25:14.955Z,16.70
2018-11-23T21:27:42.663Z,17.80
2018-11-23T21:30:20.524Z,18.37
2018-11-23T21:32:49.790Z,18.60
2018-11-23T21:35:39.166Z,20.13
2018-11-23T21:41:18.854Z,18.57
2018-11-23T21:43:46.607Z,16.77
2018-11-23T21:46:14.425Z,31.63
2018-11-23T21:48:42.324Z,19.40
2018-11-23T21:51:10.146Z,17.20
2018-11-23T21:53:43.511Z,17.83
2018-11-23T21:56:11.282Z,18.70
2018-11-23T21:58:39.074Z,16.93
2018-11-23T22:01:06.788Z,17.43
2018-11-23T22:03:34.574Z,16.57
2018-11-23T22:06:02.415Z,16.33
2018-11-23T22:08:30.937Z,15.50
2018-11-23T22:10:58.616Z,15.70
2018-11-23T22:13:26.368Z,13.83
2018-11-23T22:15:54.118Z,14.67
2018-11-23T22:18:21.849Z,14.47
2018-11-23T22:20:49.614Z,13.57
2018-11-23T22:23:17.378Z,15.07
2018-11-23T22:25:46.130Z,15.27
2018-11-23T22:28:13.872Z,15.20
2018-11-23T22:30:41.564Z,14.30
2018-11-23T22:33:09.307Z,13.87
2018-11-23T22:35:37.002Z,14.07
2018-11-23T22:38:05.000Z,12.73
2018-11-23T22:40:33.674Z,13.20
2018-11-23T22:43:01.382Z,12.80
2018-11-23T22:45:29.086Z,12.43
2018-11-23T22:47:57.667Z,13.97
2018-11-23T22:50:25.453Z,12.90
2018-11-23T22:52:54.093Z,12.63
2018-11-23T22:55:21.871Z,13.57
2018-11-23T22:57:49.589Z,13.00
2018-11-23T23:00:40.300Z,11.90
2018-11-23T23:03:08.416Z,13.37
2018-11-23T23:05:36.203Z,13.70
2018-11-23T23:08:04.408Z,13.10
2018-11-23T23:10:32.142Z,11.67
2018-11-23T23:12:59.910Z,12.87
2018-11-23T23:15:27.645Z,12.83
2018-11-23T23:17:55.419Z,13.43
2018-11-23T23:20:23.257Z,12.77
2018-11-23T23:22:51.085Z,11.53
2018-11-23T23:25:18.826Z,12.10
2018-11-23T23:27:46.512Z,11.80
2018-11-23T23:30:16.873Z,10.90
2018-11-23T23:32:45.333Z,12.33
2018-11-23T23:35:14.032Z,10.60
2018-11-23T23:37:41.881Z,12.87
2018-11-23T23:40:11.449Z,10.77
2018-11-23T23:42:39.302Z,10.90
2018-11-23T23:45:11.209Z,11.57
2018-11-23T23:47:39.017Z,10.80
2018-11-23T23:50:17.663Z,10.63
2018-11-23T23:52:45.438Z,11.60
2018-11-23T23:55:13.149Z,11.13
2018-11-23T23:57:42.129Z,11.57
